MSC Francesca — 3FXI — position and weather

sailwx.info

Track history (hours):
 
Tides and Currents Weather Stations Pressure Air Temp Water Temp Dewpoint Dewpoint Depression Visibility Wind Speed Wind Dir Waves Ship Positions

MSC Francesca

Last reported at 2018-Jul-11 07:15 UTC. Time now 2018-Jul-21 15:29 UTC.
Position N 36°06' E 015°44'.
Warning: this ship's position is 10 days out of date.

Length 363 m; draft 15.7 m.

Type: Ship (hazmat cat A). MMSI: 370993000.

Date/timePositionNaut miles runAvg speedWind from/ knotsBaromVisibWave heightAir tempDewpointWater temp
2018-Jul-11 07:15N 36°06' E 015°44'519.2
2018-Jul-11 07:00N 36°07' E 015°39'1019.6
2018-Jul-11 06:30N 36°10' E 015°27'815.6
2018-Jul-11 06:00N 36°12' E 015°17'714.6
2018-Jul-11 05:30N 36°14' E 015°09'34814.4
2018-Jul-10 05:18N 37°58' E 008°12'4514.8
2018-Jul-10 02:15N 37°54' E 007°16'514.0
2018-Jul-10 01:54N 37°53' E 007°10'1314.0
2018-Jul-10 00:58N 37°51' E 006°53'814.0
2018-Jul-10 00:24N 37°51' E 006°43'614.2
2018-Jul-10 00:00N 37°51' E 006°36'714.3
2018-Jul-09 23:30N 37°50' E 006°27'814.5
2018-Jul-09 22:58N 37°50' E 006°17'714.7
2018-Jul-09 22:29N 37°49' E 006°08'714.7
2018-Jul-09 22:00N 37°48' E 005°59'714.8
2018-Jul-09 21:30N 37°48' E 005°50'1815.0
2018-Jul-09 20:17N 37°46' E 005°27'515.0
2018-Jul-09 19:59N 37°46' E 005°21'814.8
2018-Jul-09 19:28N 37°45' E 005°12'714.8
2018-Jul-09 19:00N 37°44' E 005°03'714.9
2018-Jul-09 18:30N 37°43' E 004°54'814.9
2018-Jul-09 18:00N 37°41' E 004°44'714.7
2018-Jul-09 17:30N 37°40' E 004°35'714.7
2018-Jul-09 17:00N 37°38' E 004°26'814.7
2018-Jul-09 16:30N 37°36' E 004°17'714.7
2018-Jul-09 16:00N 37°34' E 004°09'714.8
2018-Jul-09 15:30N 37°32' E 003°60'714.7
2018-Jul-09 15:00N 37°31' E 003°50'714.4
2018-Jul-09 14:30N 37°29' E 003°42'713.7
2018-Jul-09 14:01N 37°28' E 003°33'813.4
2018-Jul-09 13:27N 37°26' E 003°24'613.7
2018-Jul-09 13:00N 37°24' E 003°17'713.9
2018-Jul-09 12:30N 37°23' E 003°08'713.9
2018-Jul-09 12:00N 37°21' E 002°60'714.1
2018-Jul-09 11:30N 37°20' E 002°51'714.5
2018-Jul-09 11:00N 37°18' E 002°42'714.7
2018-Jul-09 10:30N 37°16' E 002°33'714.7
2018-Jul-09 10:00N 37°14' E 002°24'714.9
2018-Jul-09 09:30N 37°12' E 002°15'815.3
2018-Jul-09 09:00N 37°10' E 002°06'815.3
2018-Jul-09 08:29N 37°09' E 001°56'715.2
2018-Jul-09 08:00N 37°07' E 001°47'714.7
2018-Jul-09 07:30N 37°06' E 001°38'814.6
2018-Jul-09 06:59N 37°04' E 001°29'918.5
2018-Jul-09 06:30N 37°02' E 001°18'918.9
2018-Jul-09 06:00N 36°59' E 001°07'1714.6
2018-Jul-09 04:50N 36°55' E 000°46'514.5
2018-Jul-09 04:30N 36°54' E 000°40'714.5
2018-Jul-09 04:00N 36°53' E 000°31'714.5
2018-Jul-09 03:30N 36°51' E 000°22'814.4
2018-Jul-09 02:57N 36°50' E 000°13'914.3
2018-Jul-09 02:20N 36°48' E 000°02'714.0
2018-Jul-09 01:49N 36°47' W 000°07'514.0
2018-Jul-09 01:26N 36°46' W 000°14'614.1
2018-Jul-09 01:00N 36°44' W 000°21'713.9
2018-Jul-09 00:29N 36°41' W 000°29'714.0
2018-Jul-09 00:00N 36°40' W 000°37'714.0
2018-Jul-08 23:30N 36°38' W 000°46'815.3
2018-Jul-08 23:00N 36°36' W 000°55'713.0
2018-Jul-08 22:27N 36°34' W 001°04'1214.1
2018-Jul-08 21:35N 36°31' W 001°19'214.1
2018-Jul-08 21:28N 36°31' W 001°21'18314.5
2018-Jul-08 08:53N 36°01' W 005°04'615.4
2018-Jul-08 08:30N 36°00' W 005°11'815.7
2018-Jul-08 08:00N 35°59' W 005°20'815.7
2018-Jul-08 07:30N 35°57' W 005°30'815.0
2018-Jul-08 07:00N 35°55' W 005°39'714.0
2018-Jul-08 06:29N 35°55' W 005°48'9814.8
2018-Jul-07 23:54N 36°11' W 007°47'815.1
2018-Jul-07 23:21N 36°14' W 007°57'515.2
2018-Jul-07 23:00N 36°15' W 008°03'2714.9
2018-Jul-07 21:11N 36°23' W 008°35'314.9
2018-Jul-07 21:00N 36°24' W 008°39'814.4
2018-Jul-07 20:27N 36°26' W 008°48'614.4
2018-Jul-07 20:00N 36°28' W 008°56'715.0
2018-Jul-07 19:30N 36°30' W 009°05'815.1
2018-Jul-07 19:00N 36°32' W 009°14'1015.2
2018-Jul-07 18:21N 36°39' W 009°23'615.1
2018-Jul-07 17:57N 36°43' W 009°28'614.8
2018-Jul-07 17:30N 36°49' W 009°33'815.6
2018-Jul-07 17:00N 36°56' W 009°35'815.6
2018-Jul-07 16:30N 37°04' W 009°38'815.6
2018-Jul-07 16:00N 37°11' W 009°40'815.6
2018-Jul-07 15:31N 37°19' W 009°42'815.7
2018-Jul-07 15:00N 37°27' W 009°44'815.3
2018-Jul-07 14:31N 37°34' W 009°46'815.4
2018-Jul-07 14:01N 37°41' W 009°48'815.2
2018-Jul-07 13:30N 37°49' W 009°51'815.0
2018-Jul-07 13:00N 37°56' W 009°53'715.1
2018-Jul-07 12:30N 38°04' W 009°55'815.2
2018-Jul-07 12:00N 38°11' W 009°57'815.3
2018-Jul-07 11:30N 38°19' W 009°59'815.6
2018-Jul-07 11:01N 38°26' W 010°01'815.7
2018-Jul-07 10:29N 38°34' W 010°04'715.4
2018-Jul-07 10:00N 38°41' W 010°06'814.9
2018-Jul-07 09:29N 38°49' W 010°06'715.3
2018-Jul-07 09:00N 38°56' W 010°06'815.0
2018-Jul-07 08:29N 39°04' W 010°07'714.7
2018-Jul-07 07:59N 39°11' W 010°07'915.4
2018-Jul-07 07:23N 39°21' W 010°07'615.5
2018-Jul-07 06:58N 39°27' W 010°07'57714.4
2018-Jul-05 15:01N 48°36' W 006°02'014.7
2018-Jul-05 15:01N 48°37' W 006°02'2115.6
2018-Jul-05 13:42N 48°54' W 005°46'815.5
2018-Jul-05 13:10N 48°59' W 005°36'315.6
2018-Jul-05 12:57N 49°01' W 005°31'8514.8
2018-Jul-05 07:11N 49°43' W 003°38'414.6
2018-Jul-05 06:55N 49°45' W 003°33'1214.9
2018-Jul-05 06:08N 49°50' W 003°17'515.3
2018-Jul-05 05:50N 49°53' W 003°10'615.5
2018-Jul-05 05:28N 49°55' W 003°03'716.1
2018-Jul-05 05:00N 49°58' W 002°52'816.1
2018-Jul-05 04:30N 50°01' W 002°40'815.9
2018-Jul-05 04:00N 50°03' W 002°29'815.5
2018-Jul-05 03:30N 50°05' W 002°17'715.1
2018-Jul-05 03:00N 50°07' W 002°06'714.4
2018-Jul-05 02:30N 50°09' W 001°55'713.8
2018-Jul-05 02:00N 50°11' W 001°44'713.2
2018-Jul-05 01:30N 50°13' W 001°34'612.8
2018-Jul-05 01:00N 50°14' W 001°25'612.3
2018-Jul-05 00:31N 50°16' W 001°16'612.1
2018-Jul-05 00:01N 50°17' W 001°06'612.3
2018-Jul-04 23:31N 50°19' W 000°57'612.8
2018-Jul-04 23:00N 50°20' W 000°47'613.0
2018-Jul-04 22:30N 50°23' W 000°38'713.6
2018-Jul-04 22:01N 50°25' W 000°28'714.4
2018-Jul-04 21:30N 50°27' W 000°17'815.1
2018-Jul-04 21:01N 50°29' W 000°06'815.4
2018-Jul-04 20:30N 50°32' E 000°06'915.8
2018-Jul-04 19:57N 50°34' E 000°19'716.0
2018-Jul-04 19:30N 50°36' E 000°30'815.7
2018-Jul-04 19:01N 50°40' E 000°41'815.4
2018-Jul-04 18:30N 50°44' E 000°51'815.5
2018-Jul-04 18:01N 50°49' E 001°00'815.1
2018-Jul-04 17:30N 50°54' E 001°10'714.4
2018-Jul-04 17:01N 50°59' E 001°18'713.8
2018-Jul-04 16:31N 51°03' E 001°26'713.9
2018-Jul-04 16:00N 51°08' E 001°35'714.0
2018-Jul-04 15:31N 51°12' E 001°44'714.0
2018-Jul-04 15:00N 51°18' E 001°49'714.7
2018-Jul-04 14:30N 51°24' E 001°54'815.4
2018-Jul-04 14:00N 51°30' E 002°02'816.0
2018-Jul-04 13:30N 51°36' E 002°11'1616.3
2018-Jul-04 12:30N 51°48' E 002°29'816.4
2018-Jul-04 12:00N 51°54' E 002°38'816.1
2018-Jul-04 11:30N 51°60' E 002°47'815.4
2018-Jul-04 11:00N 52°02' E 002°59'815.2
2018-Jul-04 10:30N 52°03' E 003°11'815.1
2018-Jul-04 10:00N 52°03' E 003°24'714.6
2018-Jul-04 09:30N 52°02' E 003°35'714.1
2018-Jul-04 09:00N 52°01' E 003°47'611.2
2018-Jul-04 08:30N 52°01' E 003°56'612.2
2018-Jul-04 08:00N 51°59' E 004°05'1 2.1
2018-Jul-04 07:31N 51°58' E 004°04'0 0.5
2018-Jul-04 06:59N 51°58' E 004°04'0 0.0
2018-Jul-04 06:29N 51°58' E 004°04'0 0.0
2018-Jul-04 05:59N 51°58' E 004°04'0 0.0
2018-Jul-04 05:29N 51°58' E 004°04'0 0.0
2018-Jul-04 04:59N 51°58' E 004°04'0 0.0
2018-Jul-04 04:29N 51°58' E 004°04'0 0.0
2018-Jul-04 03:59N 51°58' E 004°04'0 0.0
2018-Jul-04 03:29N 51°58' E 004°04'0 0.0
2018-Jul-04 02:59N 51°58' E 004°04'0 0.0
2018-Jul-04 02:29N 51°58' E 004°04'0 0.0
2018-Jul-04 01:59N 51°58' E 004°04'0 0.0
2018-Jul-04 01:29N 51°58' E 004°04'0 0.0
2018-Jul-04 00:59N 51°58' E 004°04'0 0.0
2018-Jul-04 00:29N 51°58' E 004°04'0 0.0
2018-Jul-03 23:59N 51°58' E 004°04'0 0.0
2018-Jul-03 23:29N 51°58' E 004°04'0 0.0
2018-Jul-03 22:59N 51°58' E 004°04'0 0.0
2018-Jul-03 22:29N 51°58' E 004°04'0 0.0
2018-Jul-03 21:59N 51°58' E 004°04'0 0.0
2018-Jul-03 21:29N 51°58' E 004°04'0 0.0
2018-Jul-03 20:59N 51°58' E 004°04'0 0.0
2018-Jul-03 20:29N 51°58' E 004°04'0 0.0
2018-Jul-03 19:59N 51°58' E 004°04'0 0.0
2018-Jul-03 19:29N 51°58' E 004°04'0 0.0
2018-Jul-03 18:59N 51°58' E 004°04'0 0.0
2018-Jul-03 18:29N 51°58' E 004°04'0 0.0
2018-Jul-03 17:59N 51°58' E 004°04'0 0.0
2018-Jul-03 17:29N 51°58' E 004°04'0 0.0
2018-Jul-03 16:59N 51°58' E 004°04'0 0.0
2018-Jul-03 16:29N 51°58' E 004°04'0 0.0
2018-Jul-03 15:59N 51°58' E 004°04'0 0.0
2018-Jul-03 15:29N 51°58' E 004°04'0 0.0
2018-Jul-03 14:59N 51°58' E 004°04'0 0.0
2018-Jul-03 14:29N 51°58' E 004°04'0 0.0
2018-Jul-03 13:59N 51°58' E 004°04'0 0.0
2018-Jul-03 13:29N 51°58' E 004°04'0 0.0
2018-Jul-03 12:59N 51°58' E 004°04'0 0.0
2018-Jul-03 12:29N 51°58' E 004°04'0 0.0
2018-Jul-03 11:59N 51°58' E 004°04'0 0.0
2018-Jul-03 11:29N 51°58' E 004°04'0 0.0
2018-Jul-03 10:59N 51°58' E 004°04'0 0.0
2018-Jul-03 10:29N 51°58' E 004°04'0 0.0
2018-Jul-03 09:59N 51°58' E 004°04'0 0.0
2018-Jul-03 09:29N 51°58' E 004°04'0 0.0
2018-Jul-03 08:59N 51°58' E 004°04'1 1.2
2018-Jul-03 08:30N 51°58' E 004°05'2 4.8
2018-Jul-03 08:00N 51°59' E 004°02'611.3
2018-Jul-03 07:30N 52°02' E 003°54'611.4
2018-Jul-03 07:00N 52°01' E 003°45'5 9.2
2018-Jul-03 06:30N 51°60' E 003°37'5 9.8
2018-Jul-03 06:01N 51°56' E 003°33'0 0.9
2018-Jul-03 05:30N 51°56' E 003°32'0 0.1
2018-Jul-03 05:00N 51°56' E 003°32'0 0.4
2018-Jul-03 04:30N 51°55' E 003°32'0 0.9
2018-Jul-03 04:00N 51°55' E 003°32'3 5.8
2018-Jul-03 03:30N 51°54' E 003°27'0 0.9
2018-Jul-03 02:59N 51°54' E 003°27'0 0.1
2018-Jul-03 02:29N 51°54' E 003°27'0 0.0
2018-Jul-03 01:59N 51°54' E 003°27'0 0.0
2018-Jul-03 01:29N 51°54' E 003°27'0 0.0
2018-Jul-03 00:59N 51°54' E 003°27'0 0.0
2018-Jul-03 00:29N 51°54' E 003°27'0 0.0
2018-Jul-02 23:59N 51°54' E 003°27'0 0.0
2018-Jul-02 23:29N 51°54' E 003°27'0 0.1
2018-Jul-02 22:59N 51°54' E 003°27'0 0.0
2018-Jul-02 22:29N 51°54' E 003°27'0 0.0
2018-Jul-02 21:59N 51°54' E 003°27'0 0.0
2018-Jul-02 21:29N 51°54' E 003°27'0 0.0
2018-Jul-02 21:00N 51°54' E 003°27'0 0.8
2018-Jul-02 20:30N 51°54' E 003°26'3 6.2
2018-Jul-02 20:00N 51°52' E 003°23'714.4
2018-Jul-02 19:30N 51°46' E 003°14'5 9.9
2018-Jul-02 19:00N 51°42' E 003°13'816.7
2018-Jul-02 18:30N 51°34' E 003°09'917.5
2018-Jul-02 18:00N 51°27' E 002°60'612.2
2018-Jul-02 17:30N 51°24' E 003°08'816.9
2018-Jul-02 17:00N 51°24' E 003°22'815.6
2018-Jul-02 16:30N 51°26' E 003°34'510.6
2018-Jul-02 16:01N 51°25' E 003°43'612.3
2018-Jul-02 15:30N 51°21' E 003°50'713.1
2018-Jul-02 15:00N 51°25' E 003°58'4 8.6
2018-Jul-02 14:30N 51°23' E 004°03'611.9
2018-Jul-02 14:00N 51°23' E 004°13'5 9.5
2018-Jul-02 13:30N 51°19' E 004°16'2 4.3
2018-Jul-02 12:59N 51°17' E 004°15'0 0.0
2018-Jul-02 12:26N 51°17' E 004°15'0 0.0
2018-Jul-02 11:59N 51°17' E 004°15'0 0.0
2018-Jul-02 11:29N 51°17' E 004°15'0 0.0
2018-Jul-02 10:59N 51°17' E 004°15'0 0.0
2018-Jul-02 10:20N 51°17' E 004°15'0 0.0
2018-Jul-02 09:59N 51°17' E 004°15'0 0.0
2018-Jul-02 09:29N 51°17' E 004°15'0 0.0
2018-Jul-02 08:59N 51°17' E 004°15'0 0.0
2018-Jul-02 08:29N 51°17' E 004°15'0 0.0
2018-Jul-02 07:56N 51°17' E 004°15'0 0.0
2018-Jul-02 07:29N 51°17' E 004°15'0 0.0
2018-Jul-02 06:59N 51°17' E 004°15'0 0.0
2018-Jul-02 06:29N 51°17' E 004°15'0 0.0
2018-Jul-02 05:56N 51°17' E 004°15'0 0.0
2018-Jul-02 05:20N 51°17' E 004°15'0 0.0
2018-Jul-02 04:59N 51°17' E 004°15'0 0.0
2018-Jul-02 04:29N 51°17' E 004°15'0 0.0
2018-Jul-02 03:59N 51°17' E 004°15'0 0.0
2018-Jul-02 03:29N 51°17' E 004°15'0 0.0
2018-Jul-02 02:59N 51°17' E 004°15'0 0.0
2018-Jul-02 02:29N 51°17' E 004°15'0 0.0
2018-Jul-02 01:59N 51°17' E 004°15'0 0.0
2018-Jul-02 01:29N 51°17' E 004°15'0 0.0
2018-Jul-02 00:59N 51°17' E 004°15'0 0.0
2018-Jul-02 00:29N 51°17' E 004°15'0 0.0
2018-Jul-01 23:56N 51°17' E 004°15'0 0.0
2018-Jul-01 23:29N 51°17' E 004°15'0 0.0
2018-Jul-01 22:59N 51°17' E 004°15'0 0.0
2018-Jul-01 22:29N 51°17' E 004°15'0 0.0
2018-Jul-01 21:59N 51°17' E 004°15'0 0.0
2018-Jul-01 21:29N 51°17' E 004°15'0 0.0
2018-Jul-01 20:59N 51°17' E 004°15'0 0.0
2018-Jul-01 20:29N 51°17' E 004°15'0 0.0
2018-Jul-01 19:59N 51°17' E 004°15'0 0.0
2018-Jul-01 19:29N 51°17' E 004°15'0 0.0
2018-Jul-01 18:59N 51°17' E 004°15'0 0.0
2018-Jul-01 18:29N 51°17' E 004°15'0 0.0
2018-Jul-01 17:59N 51°17' E 004°15'0 0.0
2018-Jul-01 17:29N 51°17' E 004°15'0 0.0
2018-Jul-01 16:59N 51°17' E 004°15'0 0.0
2018-Jul-01 16:29N 51°17' E 004°15'0 0.0
2018-Jul-01 15:59N 51°17' E 004°15'0 0.0
2018-Jul-01 15:29N 51°17' E 004°15'0 0.0
2018-Jul-01 14:56N 51°17' E 004°15'0 0.0
2018-Jul-01 14:29N 51°17' E 004°15'0 0.0
2018-Jul-01 13:59N 51°17' E 004°15'0 0.0
2018-Jul-01 13:26N 51°17' E 004°15'0 0.0
2018-Jul-01 12:56N 51°17' E 004°15'0 0.0
2018-Jul-01 12:29N 51°17' E 004°15'0 0.0
2018-Jul-01 11:59N 51°17' E 004°15'0 0.0
2018-Jul-01 11:29N 51°17' E 004°15'0 0.0
2018-Jul-01 10:59N 51°17' E 004°15'0 0.0
2018-Jul-01 10:29N 51°17' E 004°15'0 0.0
2018-Jul-01 09:59N 51°17' E 004°15'0 0.0
2018-Jul-01 09:29N 51°17' E 004°15'0 0.0
2018-Jul-01 08:59N 51°17' E 004°15'0 0.0
2018-Jul-01 08:29N 51°17' E 004°15'0 0.0
2018-Jul-01 07:59N 51°17' E 004°15'0 0.0
2018-Jul-01 07:29N 51°17' E 004°15'  
Track history (hours):
 
Tides and Currents Weather Stations Pressure Air Temp Water Temp Dewpoint Dewpoint Depression Visibility Wind Speed Wind Dir Waves Ship Positions

MSC Francesca

Last reported at 2018-Jul-11 07:15 UTC. Time now 2018-Jul-21 15:29 UTC.
Position N 36°06' E 015°44'.
Warning: this ship's position is 10 days out of date.

Length 363 m; draft 15.7 m.

Type: Ship (hazmat cat A). MMSI: 370993000.

Date/timePositionNaut miles runAvg speedWind from/ knotsBaromVisibWave heightAir tempDewpointWater temp
2018-Jul-11 07:15N 36°06' E 015°44'519.2
2018-Jul-11 07:00N 36°07' E 015°39'1019.6
2018-Jul-11 06:30N 36°10' E 015°27'815.6
2018-Jul-11 06:00N 36°12' E 015°17'714.6
2018-Jul-11 05:30N 36°14' E 015°09'34814.4
2018-Jul-10 05:18N 37°58' E 008°12'4514.8
2018-Jul-10 02:15N 37°54' E 007°16'514.0
2018-Jul-10 01:54N 37°53' E 007°10'1314.0
2018-Jul-10 00:58N 37°51' E 006°53'814.0
2018-Jul-10 00:24N 37°51' E 006°43'614.2
2018-Jul-10 00:00N 37°51' E 006°36'714.3
2018-Jul-09 23:30N 37°50' E 006°27'814.5
2018-Jul-09 22:58N 37°50' E 006°17'714.7
2018-Jul-09 22:29N 37°49' E 006°08'714.7
2018-Jul-09 22:00N 37°48' E 005°59'714.8
2018-Jul-09 21:30N 37°48' E 005°50'1815.0
2018-Jul-09 20:17N 37°46' E 005°27'515.0
2018-Jul-09 19:59N 37°46' E 005°21'814.8
2018-Jul-09 19:28N 37°45' E 005°12'714.8
2018-Jul-09 19:00N 37°44' E 005°03'714.9
2018-Jul-09 18:30N 37°43' E 004°54'814.9
2018-Jul-09 18:00N 37°41' E 004°44'714.7
2018-Jul-09 17:30N 37°40' E 004°35'714.7
2018-Jul-09 17:00N 37°38' E 004°26'814.7
2018-Jul-09 16:30N 37°36' E 004°17'714.7
2018-Jul-09 16:00N 37°34' E 004°09'714.8
2018-Jul-09 15:30N 37°32' E 003°60'714.7
2018-Jul-09 15:00N 37°31' E 003°50'714.4
2018-Jul-09 14:30N 37°29' E 003°42'713.7
2018-Jul-09 14:01N 37°28' E 003°33'813.4
2018-Jul-09 13:27N 37°26' E 003°24'613.7
2018-Jul-09 13:00N 37°24' E 003°17'713.9
2018-Jul-09 12:30N 37°23' E 003°08'713.9
2018-Jul-09 12:00N 37°21' E 002°60'714.1
2018-Jul-09 11:30N 37°20' E 002°51'714.5
2018-Jul-09 11:00N 37°18' E 002°42'714.7
2018-Jul-09 10:30N 37°16' E 002°33'714.7
2018-Jul-09 10:00N 37°14' E 002°24'714.9
2018-Jul-09 09:30N 37°12' E 002°15'815.3
2018-Jul-09 09:00N 37°10' E 002°06'815.3
2018-Jul-09 08:29N 37°09' E 001°56'715.2
2018-Jul-09 08:00N 37°07' E 001°47'714.7
2018-Jul-09 07:30N 37°06' E 001°38'814.6
2018-Jul-09 06:59N 37°04' E 001°29'918.5
2018-Jul-09 06:30N 37°02' E 001°18'918.9
2018-Jul-09 06:00N 36°59' E 001°07'1714.6
2018-Jul-09 04:50N 36°55' E 000°46'514.5
2018-Jul-09 04:30N 36°54' E 000°40'714.5
2018-Jul-09 04:00N 36°53' E 000°31'714.5
2018-Jul-09 03:30N 36°51' E 000°22'814.4
2018-Jul-09 02:57N 36°50' E 000°13'914.3
2018-Jul-09 02:20N 36°48' E 000°02'714.0
2018-Jul-09 01:49N 36°47' W 000°07'514.0
2018-Jul-09 01:26N 36°46' W 000°14'614.1
2018-Jul-09 01:00N 36°44' W 000°21'713.9
2018-Jul-09 00:29N 36°41' W 000°29'714.0
2018-Jul-09 00:00N 36°40' W 000°37'714.0
2018-Jul-08 23:30N 36°38' W 000°46'815.3
2018-Jul-08 23:00N 36°36' W 000°55'713.0
2018-Jul-08 22:27N 36°34' W 001°04'1214.1
2018-Jul-08 21:35N 36°31' W 001°19'214.1
2018-Jul-08 21:28N 36°31' W 001°21'18314.5
2018-Jul-08 08:53N 36°01' W 005°04'615.4
2018-Jul-08 08:30N 36°00' W 005°11'815.7
2018-Jul-08 08:00N 35°59' W 005°20'815.7
2018-Jul-08 07:30N 35°57' W 005°30'815.0
2018-Jul-08 07:00N 35°55' W 005°39'714.0
2018-Jul-08 06:29N 35°55' W 005°48'9814.8
2018-Jul-07 23:54N 36°11' W 007°47'815.1
2018-Jul-07 23:21N 36°14' W 007°57'515.2
2018-Jul-07 23:00N 36°15' W 008°03'2714.9
2018-Jul-07 21:11N 36°23' W 008°35'314.9
2018-Jul-07 21:00N 36°24' W 008°39'814.4
2018-Jul-07 20:27N 36°26' W 008°48'614.4
2018-Jul-07 20:00N 36°28' W 008°56'715.0
2018-Jul-07 19:30N 36°30' W 009°05'815.1
2018-Jul-07 19:00N 36°32' W 009°14'1015.2
2018-Jul-07 18:21N 36°39' W 009°23'615.1
2018-Jul-07 17:57N 36°43' W 009°28'614.8
2018-Jul-07 17:30N 36°49' W 009°33'815.6
2018-Jul-07 17:00N 36°56' W 009°35'815.6
2018-Jul-07 16:30N 37°04' W 009°38'815.6
2018-Jul-07 16:00N 37°11' W 009°40'815.6
2018-Jul-07 15:31N 37°19' W 009°42'815.7
2018-Jul-07 15:00N 37°27' W 009°44'815.3
2018-Jul-07 14:31N 37°34' W 009°46'815.4
2018-Jul-07 14:01N 37°41' W 009°48'815.2
2018-Jul-07 13:30N 37°49' W 009°51'815.0
2018-Jul-07 13:00N 37°56' W 009°53'715.1
2018-Jul-07 12:30N 38°04' W 009°55'815.2
2018-Jul-07 12:00N 38°11' W 009°57'815.3
2018-Jul-07 11:30N 38°19' W 009°59'815.6
2018-Jul-07 11:01N 38°26' W 010°01'815.7
2018-Jul-07 10:29N 38°34' W 010°04'715.4
2018-Jul-07 10:00N 38°41' W 010°06'814.9
2018-Jul-07 09:29N 38°49' W 010°06'715.3
2018-Jul-07 09:00N 38°56' W 010°06'815.0
2018-Jul-07 08:29N 39°04' W 010°07'714.7
2018-Jul-07 07:59N 39°11' W 010°07'915.4
2018-Jul-07 07:23N 39°21' W 010°07'615.5
2018-Jul-07 06:58N 39°27' W 010°07'57714.4
2018-Jul-05 15:01N 48°36' W 006°02'014.7
2018-Jul-05 15:01N 48°37' W 006°02'2115.6
2018-Jul-05 13:42N 48°54' W 005°46'815.5
2018-Jul-05 13:10N 48°59' W 005°36'315.6
2018-Jul-05 12:57N 49°01' W 005°31'8514.8
2018-Jul-05 07:11N 49°43' W 003°38'414.6
2018-Jul-05 06:55N 49°45' W 003°33'1214.9
2018-Jul-05 06:08N 49°50' W 003°17'515.3
2018-Jul-05 05:50N 49°53' W 003°10'615.5
2018-Jul-05 05:28N 49°55' W 003°03'716.1
2018-Jul-05 05:00N 49°58' W 002°52'816.1
2018-Jul-05 04:30N 50°01' W 002°40'815.9
2018-Jul-05 04:00N 50°03' W 002°29'815.5
2018-Jul-05 03:30N 50°05' W 002°17'715.1
2018-Jul-05 03:00N 50°07' W 002°06'714.4
2018-Jul-05 02:30N 50°09' W 001°55'713.8
2018-Jul-05 02:00N 50°11' W 001°44'713.2
2018-Jul-05 01:30N 50°13' W 001°34'612.8
2018-Jul-05 01:00N 50°14' W 001°25'612.3
2018-Jul-05 00:31N 50°16' W 001°16'612.1
2018-Jul-05 00:01N 50°17' W 001°06'612.3
2018-Jul-04 23:31N 50°19' W 000°57'612.8
2018-Jul-04 23:00N 50°20' W 000°47'613.0
2018-Jul-04 22:30N 50°23' W 000°38'713.6
2018-Jul-04 22:01N 50°25' W 000°28'714.4
2018-Jul-04 21:30N 50°27' W 000°17'815.1
2018-Jul-04 21:01N 50°29' W 000°06'815.4
2018-Jul-04 20:30N 50°32' E 000°06'915.8
2018-Jul-04 19:57N 50°34' E 000°19'716.0
2018-Jul-04 19:30N 50°36' E 000°30'815.7
2018-Jul-04 19:01N 50°40' E 000°41'815.4
2018-Jul-04 18:30N 50°44' E 000°51'815.5
2018-Jul-04 18:01N 50°49' E 001°00'815.1
2018-Jul-04 17:30N 50°54' E 001°10'714.4
2018-Jul-04 17:01N 50°59' E 001°18'713.8
2018-Jul-04 16:31N 51°03' E 001°26'713.9
2018-Jul-04 16:00N 51°08' E 001°35'714.0
2018-Jul-04 15:31N 51°12' E 001°44'714.0
2018-Jul-04 15:00N 51°18' E 001°49'714.7
2018-Jul-04 14:30N 51°24' E 001°54'815.4
2018-Jul-04 14:00N 51°30' E 002°02'816.0
2018-Jul-04 13:30N 51°36' E 002°11'1616.3
2018-Jul-04 12:30N 51°48' E 002°29'816.4
2018-Jul-04 12:00N 51°54' E 002°38'816.1
2018-Jul-04 11:30N 51°60' E 002°47'815.4
2018-Jul-04 11:00N 52°02' E 002°59'815.2
2018-Jul-04 10:30N 52°03' E 003°11'815.1
2018-Jul-04 10:00N 52°03' E 003°24'714.6
2018-Jul-04 09:30N 52°02' E 003°35'714.1
2018-Jul-04 09:00N 52°01' E 003°47'611.2
2018-Jul-04 08:30N 52°01' E 003°56'612.2
2018-Jul-04 08:00N 51°59' E 004°05'1 2.1
2018-Jul-04 07:31N 51°58' E 004°04'0 0.5
2018-Jul-04 06:59N 51°58' E 004°04'0 0.0
2018-Jul-04 06:29N 51°58' E 004°04'0 0.0
2018-Jul-04 05:59N 51°58' E 004°04'0 0.0
2018-Jul-04 05:29N 51°58' E 004°04'0 0.0
2018-Jul-04 04:59N 51°58' E 004°04'0 0.0
2018-Jul-04 04:29N 51°58' E 004°04'0 0.0
2018-Jul-04 03:59N 51°58' E 004°04'0 0.0
2018-Jul-04 03:29N 51°58' E 004°04'0 0.0
2018-Jul-04 02:59N 51°58' E 004°04'0 0.0
2018-Jul-04 02:29N 51°58' E 004°04'0 0.0
2018-Jul-04 01:59N 51°58' E 004°04'0 0.0
2018-Jul-04 01:29N 51°58' E 004°04'0 0.0
2018-Jul-04 00:59N 51°58' E 004°04'0 0.0
2018-Jul-04 00:29N 51°58' E 004°04'0 0.0
2018-Jul-03 23:59N 51°58' E 004°04'0 0.0
2018-Jul-03 23:29N 51°58' E 004°04'0 0.0
2018-Jul-03 22:59N 51°58' E 004°04'0 0.0
2018-Jul-03 22:29N 51°58' E 004°04'0 0.0
2018-Jul-03 21:59N 51°58' E 004°04'0 0.0
2018-Jul-03 21:29N 51°58' E 004°04'0 0.0
2018-Jul-03 20:59N 51°58' E 004°04'0 0.0
2018-Jul-03 20:29N 51°58' E 004°04'0 0.0
2018-Jul-03 19:59N 51°58' E 004°04'0 0.0
2018-Jul-03 19:29N 51°58' E 004°04'0 0.0
2018-Jul-03 18:59N 51°58' E 004°04'0 0.0
2018-Jul-03 18:29N 51°58' E 004°04'0 0.0
2018-Jul-03 17:59N 51°58' E 004°04'0 0.0
2018-Jul-03 17:29N 51°58' E 004°04'0 0.0
2018-Jul-03 16:59N 51°58' E 004°04'0 0.0
2018-Jul-03 16:29N 51°58' E 004°04'0 0.0
2018-Jul-03 15:59N 51°58' E 004°04'0 0.0
2018-Jul-03 15:29N 51°58' E 004°04'0 0.0
2018-Jul-03 14:59N 51°58' E 004°04'0 0.0
2018-Jul-03 14:29N 51°58' E 004°04'0 0.0
2018-Jul-03 13:59N 51°58' E 004°04'0 0.0
2018-Jul-03 13:29N 51°58' E 004°04'0 0.0
2018-Jul-03 12:59N 51°58' E 004°04'0 0.0
2018-Jul-03 12:29N 51°58' E 004°04'0 0.0
2018-Jul-03 11:59N 51°58' E 004°04'0 0.0
2018-Jul-03 11:29N 51°58' E 004°04'0 0.0
2018-Jul-03 10:59N 51°58' E 004°04'0 0.0
2018-Jul-03 10:29N 51°58' E 004°04'0 0.0
2018-Jul-03 09:59N 51°58' E 004°04'0 0.0
2018-Jul-03 09:29N 51°58' E 004°04'0 0.0
2018-Jul-03 08:59N 51°58' E 004°04'1 1.2
2018-Jul-03 08:30N 51°58' E 004°05'2 4.8
2018-Jul-03 08:00N 51°59' E 004°02'611.3
2018-Jul-03 07:30N 52°02' E 003°54'611.4
2018-Jul-03 07:00N 52°01' E 003°45'5 9.2
2018-Jul-03 06:30N 51°60' E 003°37'5 9.8
2018-Jul-03 06:01N 51°56' E 003°33'0 0.9
2018-Jul-03 05:30N 51°56' E 003°32'0 0.1
2018-Jul-03 05:00N 51°56' E 003°32'0 0.4
2018-Jul-03 04:30N 51°55' E 003°32'0 0.9
2018-Jul-03 04:00N 51°55' E 003°32'3 5.8
2018-Jul-03 03:30N 51°54' E 003°27'0 0.9
2018-Jul-03 02:59N 51°54' E 003°27'0 0.1
2018-Jul-03 02:29N 51°54' E 003°27'0 0.0
2018-Jul-03 01:59N 51°54' E 003°27'0 0.0
2018-Jul-03 01:29N 51°54' E 003°27'0 0.0
2018-Jul-03 00:59N 51°54' E 003°27'0 0.0
2018-Jul-03 00:29N 51°54' E 003°27'0 0.0
2018-Jul-02 23:59N 51°54' E 003°27'0 0.0
2018-Jul-02 23:29N 51°54' E 003°27'0 0.1
2018-Jul-02 22:59N 51°54' E 003°27'0 0.0
2018-Jul-02 22:29N 51°54' E 003°27'0 0.0
2018-Jul-02 21:59N 51°54' E 003°27'0 0.0
2018-Jul-02 21:29N 51°54' E 003°27'0 0.0
2018-Jul-02 21:00N 51°54' E 003°27'0 0.8
2018-Jul-02 20:30N 51°54' E 003°26'3 6.2
2018-Jul-02 20:00N 51°52' E 003°23'714.4
2018-Jul-02 19:30N 51°46' E 003°14'5 9.9
2018-Jul-02 19:00N 51°42' E 003°13'816.7
2018-Jul-02 18:30N 51°34' E 003°09'917.5
2018-Jul-02 18:00N 51°27' E 002°60'612.2
2018-Jul-02 17:30N 51°24' E 003°08'816.9
2018-Jul-02 17:00N 51°24' E 003°22'815.6
2018-Jul-02 16:30N 51°26' E 003°34'510.6
2018-Jul-02 16:01N 51°25' E 003°43'612.3
2018-Jul-02 15:30N 51°21' E 003°50'713.1
2018-Jul-02 15:00N 51°25' E 003°58'4 8.6
2018-Jul-02 14:30N 51°23' E 004°03'611.9
2018-Jul-02 14:00N 51°23' E 004°13'5 9.5
2018-Jul-02 13:30N 51°19' E 004°16'2 4.3
2018-Jul-02 12:59N 51°17' E 004°15'0 0.0
2018-Jul-02 12:26N 51°17' E 004°15'0 0.0
2018-Jul-02 11:59N 51°17' E 004°15'0 0.0
2018-Jul-02 11:29N 51°17' E 004°15'0 0.0
2018-Jul-02 10:59N 51°17' E 004°15'0 0.0
2018-Jul-02 10:20N 51°17' E 004°15'0 0.0
2018-Jul-02 09:59N 51°17' E 004°15'0 0.0
2018-Jul-02 09:29N 51°17' E 004°15'0 0.0
2018-Jul-02 08:59N 51°17' E 004°15'0 0.0
2018-Jul-02 08:29N 51°17' E 004°15'0 0.0
2018-Jul-02 07:56N 51°17' E 004°15'0 0.0
2018-Jul-02 07:29N 51°17' E 004°15'0 0.0
2018-Jul-02 06:59N 51°17' E 004°15'0 0.0
2018-Jul-02 06:29N 51°17' E 004°15'0 0.0
2018-Jul-02 05:56N 51°17' E 004°15'0 0.0
2018-Jul-02 05:20N 51°17' E 004°15'0 0.0
2018-Jul-02 04:59N 51°17' E 004°15'0 0.0
2018-Jul-02 04:29N 51°17' E 004°15'0 0.0
2018-Jul-02 03:59N 51°17' E 004°15'0 0.0
2018-Jul-02 03:29N 51°17' E 004°15'0 0.0
2018-Jul-02 02:59N 51°17' E 004°15'0 0.0
2018-Jul-02 02:29N 51°17' E 004°15'0 0.0
2018-Jul-02 01:59N 51°17' E 004°15'0 0.0
2018-Jul-02 01:29N 51°17' E 004°15'0 0.0
2018-Jul-02 00:59N 51°17' E 004°15'0 0.0
2018-Jul-02 00:29N 51°17' E 004°15'0 0.0
2018-Jul-01 23:56N 51°17' E 004°15'0 0.0
2018-Jul-01 23:29N 51°17' E 004°15'0 0.0
2018-Jul-01 22:59N 51°17' E 004°15'0 0.0
2018-Jul-01 22:29N 51°17' E 004°15'0 0.0
2018-Jul-01 21:59N 51°17' E 004°15'0 0.0
2018-Jul-01 21:29N 51°17' E 004°15'0 0.0
2018-Jul-01 20:59N 51°17' E 004°15'0 0.0
2018-Jul-01 20:29N 51°17' E 004°15'0 0.0
2018-Jul-01 19:59N 51°17' E 004°15'0 0.0
2018-Jul-01 19:29N 51°17' E 004°15'0 0.0
2018-Jul-01 18:59N 51°17' E 004°15'0 0.0
2018-Jul-01 18:29N 51°17' E 004°15'0 0.0
2018-Jul-01 17:59N 51°17' E 004°15'0 0.0
2018-Jul-01 17:29N 51°17' E 004°15'0 0.0
2018-Jul-01 16:59N 51°17' E 004°15'0 0.0
2018-Jul-01 16:29N 51°17' E 004°15'0 0.0
2018-Jul-01 15:59N 51°17' E 004°15'0 0.0
2018-Jul-01 15:29N 51°17' E 004°15'0 0.0
2018-Jul-01 14:56N 51°17' E 004°15'0 0.0
2018-Jul-01 14:29N 51°17' E 004°15'0 0.0
2018-Jul-01 13:59N 51°17' E 004°15'0 0.0
2018-Jul-01 13:26N 51°17' E 004°15'0 0.0
2018-Jul-01 12:56N 51°17' E 004°15'0 0.0
2018-Jul-01 12:29N 51°17' E 004°15'0 0.0
2018-Jul-01 11:59N 51°17' E 004°15'0 0.0
2018-Jul-01 11:29N 51°17' E 004°15'0 0.0
2018-Jul-01 10:59N 51°17' E 004°15'0 0.0
2018-Jul-01 10:29N 51°17' E 004°15'0 0.0
2018-Jul-01 09:59N 51°17' E 004°15'0 0.0
2018-Jul-01 09:29N 51°17' E 004°15'0 0.0
2018-Jul-01 08:59N 51°17' E 004°15'0 0.0
2018-Jul-01 08:29N 51°17' E 004°15'0 0.0
2018-Jul-01 07:59N 51°17' E 004°15'0 0.0
2018-Jul-01 07:29N 51°17' E 004°15'  

Dump ship's entire track history